Logo AVAMET
Benvolgut visitant, si us plau, ingressa Recuperar contrasenya
AVAMET paisatges

Ontinyent Alba

Dades diàries. Acumulats / Últims 30 dies disponibles

Data Temperatura (°C) Humitat rel. (%) Pressió rel. (hPa) Vent (km/h) Precipitació
Mínima Mitjana Màxima Amplitud
tèrmica
Mínima Mitjana Màxima Mínima Mitjana Màxima Predom. Mitjana Ràfega
màxima
Total
(mm)
Índex-n
Mínima Mitjana Màxima Mínima Mitjana Màxima n
0 a 1
P0 max
mm 5'
Dades mensuals acumulades fins l'últim dia disponible
04/2020 5,1 7,3 8,9 12,0 15,8 18,3 20,4 15,3 48 79 97 1.009 1.014 1.020   2,0 25,7 10,0
Dades anuals acumulades fins l'últim dia disponible
2020 0,1 7,1 14,2 11,5 5,1 17,3 28,0 27,9 17 74 98 1.002 1.022 1.035   2,3 54,7 508,4
Últims 30 dies disponibles
04-04-2020 5,1     11,6     18,8 13,7 48 73 91 1.017 1.019 1.020 SW 2,1 24,1 0,0
03-04-2020 6,9     12,2     18,3 11,4 48 76 96 1.014 1.016 1.019 SW 2,3 25,7 0,6
02-04-2020 8,9     11,3     15,8 6,9 68 86 96 1.010 1.012 1.015 ENE 1,8 17,7 0,8
01-04-2020 8,4     12,8     20,4 12,0 49 83 97 1.009 1.011 1.014 W 1,8 19,3 8,6 0,48 1,10
31-03-2020 5,2     8,0     10,6 5,4 90 95 97 1.010 1.011 1.013 ESE 1,5 12,9 6,4 0,51 0,60
30-03-2020 6,7     9,9     14,5 7,8 62 84 95 1.012 1.013 1.014 ENE 2,1 16,1 8,4
29-03-2020 5,6     13,2     20,9 15,3 37 63 85 1.014 1.017 1.020 SW 3,2 24,1 0,0
28-03-2020 3,3     8,6     14,8 11,5 55 80 97 1.017 1.019 1.020 E 1,1 12,9 0,0
27-03-2020 5,3     6,6     7,7 2,4 89 93 96 1.012 1.014 1.017 E 1,0 11,3 13,4
26-03-2020 5,9     9,6     14,0 8,1 49 78 93 1.008 1.010 1.014 ENE 2,4 29,0 0,2
25-03-2020 6,3     7,5     9,7 3,4 85 93 96 1.015 1.017 1.018 E 0,8 12,9 5,6
24-03-2020 7,7     10,2     11,3 3,6 87 94 96 1.014 1.016 1.017 ENE 4,5 25,7 37,0
23-03-2020 9,6     11,4     15,1 5,5 83 94 98 1.014 1.015 1.017 ENE 1,9 22,5 4,8
22-03-2020 8,2     9,8     12,1 3,9 87 96 97 1.011 1.013 1.015 E 0,6 11,3 24,8
21-03-2020 8,3     9,7     10,4 2,1 94 96 97 1.012 1.014 1.017 E 1,1 20,9 16,0
20-03-2020 9,8     10,9     13,2 3,4 82 93 96 1.017 1.018 1.020 E 2,1 14,5 2,8
19-03-2020 9,2     10,8     12,7 3,5 86 93 97 1.020 1.022 1.025 E 2,1 14,5 0,4
18-03-2020 10,5     11,6     13,8 3,3 80 92 97 1.025 1.026 1.028 E 4,0 19,3 0,0
17-03-2020 6,2     9,2     12,2 6,0 91 95 97 1.020 1.024 1.028 ESE 1,4 25,7 12,0
16-03-2020 6,1     9,4     13,1 7,0 79 90 95 1.010 1.013 1.020 WSW 1,1 24,1 7,6
15-03-2020 10,4     14,3     20,3 9,9 55 79 95 1.013 1.016 1.020 ENE 2,1 20,9 0,0
14-03-2020 8,1     14,2     21,9 13,8 52 79 94 1.017 1.019 1.021 ENE 1,4 14,5 0,0
13-03-2020 8,6     12,5     16,4 7,8 71 86 95 1.017 1.019 1.020 E 1,4 14,5 0,8
12-03-2020 10,9     17,8     26,4 15,5 37 63 90 1.015 1.018 1.021 E 1,1 11,3 0,0
11-03-2020 12,4     19,4     28,0 15,6 32 51 77 1.020 1.022 1.023 ENE 1,8 12,9 0,0
10-03-2020 7,6     15,9     25,1 17,5 27 50 69 1.022 1.024 1.026 SSE 1,1 12,9 0,0
09-03-2020 8,3     14,8     21,3 13,0 28 48 73 1.020 1.022 1.024 W 1,6 17,7 0,0
08-03-2020 5,9     14,7     22,9 17,0 21 47 76 1.021 1.023 1.025 SW 2,7 22,5 0,0
07-03-2020 6,1     11,6     18,7 12,6 37 49 64 1.021 1.023 1.025 W 2,4 22,5 0,0
06-03-2020 8,8     12,3     15,9 7,1 31 49 69 1.013 1.016 1.022 W 6,1 38,6 0,0
Últims 13 mesos disponibles
03/2020 3,3 8,3 14,2 12,3 7,7 16,8 28,0 24,7 47 75 96 1.008 1.017 1.026 E 3,0 54,7 141,6
02/2020 2,6 8,3 11,5 13,6 11,3 20,4 25,5 22,9 41 68 95 1.014 1.025 1.033 SW 2,0 32,2 8,0
01/2020 0,1 4,8 12,6 8,9 5,1 14,7 19,1 19,0 59 78 97 1.017 1.026 1.033 WSW 2,0 40,2 348,8
12/2019 2,8 7,9 16,2 11,6 9,4 16,4 23,0 20,2 54 74 96 1.003 1.019 1.033 SW 3,4 61,2 156,6
11/2019 1,8 9,1 18,4 12,9 12,7 17,3 25,2 23,4 56 65 83 1.000 1.012 1.019 WSW 4,3 51,5 10,8
10/2019 7,3 13,3 16,9 18,3 13,4 24,7 32,2 24,9 46 70 92 1.008 1.016 1.022 WSW 1,6 29,0 66,4
09/2019 12,4 17,4 21,8 22,0 18,1 27,7 35,7 23,3 46 77 97 1.009 1.016 1.023 E 1,8 41,8 423,0
08/2019 16,1 19,5 24,0 26,1 27,3 34,0 41,0 24,9 31 64 82 1.009 1.014 1.019 E 2,2 37,0 25,4
07/2019 17,2 19,6 24,1 26,6 27,1 34,1 40,9 23,7 37 60 83 1.005 1.012 1.019 ENE 2,8 46,7 1,4
06/2019 9,4 15,0 20,3 22,5 21,4 30,3 38,0 28,6 33 57 79 1.008 1.014 1.020 ENE 2,6 37,0 1,4
05/2019 6,5 11,8 18,8 18,2 19,7 25,5 30,7 24,2 48 63 84 1.005 1.014 1.023 ENE 2,6 35,4 13,8
04/2019 5,8 9,5 12,9 13,9 10,9 19,3 27,8 22,0 38 69 97 999 1.013 1.024 SW 3,7 46,7 309,0
03/2019 2,7 6,8 14,1 13,3 10,9 20,3 28,5 25,8 29 54 93 1.010 1.022 1.030 SW 2,7 43,5 51,6
Tots els anys disponibles
2019 -1,7 11,6 24,1 17,1 9,4 23,6 41,0 42,7 29 64 97 996 1.016 1.034 SW 2,7 61,2 1.062,4
2018 -1,5 11,6 22,9 16,7 5,4 22,8 39,9 41,4 34 65 96 994 1.015 1.032 S 2,8 54,7 527,5
2017 -0,7 5,0 13,6 9,1 8,5 14,4 18,5 19,2 45 64 82 1.001 1.023 1.034 SSO 3,8 56,6
Temperatura (°C)
Humitat relativa (%)
Velocitat del vent i ràfega màxima (km/h)
Direcció del vent (°)
Pressió (hPa)
Precipitació (mm)
Nota sobre les dades: s'avisa a l'usuari de la provisionalitat i no oficialitat d'aquestes dades
Logo AVAMET blanc
Web allotjada a Sollutia
Llicència de Creative CommonsLa web d'AVAMET i els seus continguts estan subjectes a una llicència de
Reconeixement - No Comercial - Compartir igual
Últimes estacions:  Altea - Com. Regants (Soci), Almoines (Inforatge), Beniparrell (Inforatge), Albal (Inforatge), Almussafes - Parc Industrial (Inforatge), La Vilavella (Soci), la Serratella (soci) - - -